createdAt,value
2018-08-30T00:00:45.572Z,22.62
2018-08-30T00:03:16.718Z,22.67
2018-08-30T00:05:47.703Z,22.80
2018-08-30T00:08:18.659Z,22.81
2018-08-30T00:10:49.107Z,22.80
2018-08-30T00:13:20.349Z,22.83
2018-08-30T00:15:50.467Z,22.76
2018-08-30T00:18:21.685Z,22.67
2018-08-30T00:20:53.375Z,22.61
2018-08-30T00:23:23.766Z,22.63
2018-08-30T00:25:54.827Z,22.61
2018-08-30T00:28:25.688Z,22.58
2018-08-30T00:30:56.042Z,22.58
2018-08-30T00:33:28.634Z,22.41
2018-08-30T00:36:02.700Z,22.38
2018-08-30T00:38:41.272Z,22.25
2018-08-30T00:41:12.134Z,22.20
2018-08-30T00:43:45.011Z,22.17
2018-08-30T00:46:16.716Z,22.17
2018-08-30T00:48:48.946Z,22.14
2018-08-30T00:51:21.688Z,22.07
2018-08-30T00:53:53.306Z,21.92
2018-08-30T00:56:23.326Z,21.79
2018-08-30T00:58:53.388Z,21.70
2018-08-30T01:01:23.578Z,21.40
2018-08-30T01:03:54.379Z,21.24
2018-08-30T01:06:25.014Z,21.16
2018-08-30T01:08:56.443Z,21.10
2018-08-30T01:11:26.465Z,20.78
2018-08-30T01:13:57.116Z,20.43
2018-08-30T01:16:28.112Z,19.81
2018-08-30T01:18:58.273Z,19.48
2018-08-30T01:21:30.177Z,19.25
2018-08-30T01:24:01.198Z,19.15
2018-08-30T01:26:31.276Z,19.12
2018-08-30T01:29:01.318Z,19.06
2018-08-30T01:31:33.081Z,19.00
2018-08-30T01:34:03.209Z,18.92
2018-08-30T01:36:35.418Z,18.97
2018-08-30T01:39:07.896Z,18.99
2018-08-30T01:41:38.915Z,19.00
2018-08-30T01:44:10.172Z,19.01
2018-08-30T01:46:40.755Z,19.01
2018-08-30T01:49:33.056Z,18.97
2018-08-30T01:52:03.205Z,19.03
2018-08-30T01:54:33.839Z,19.04
2018-08-30T01:57:04.371Z,19.10
2018-08-30T01:59:35.682Z,19.17
2018-08-30T02:02:12.411Z,19.16
2018-08-30T02:04:43.453Z,19.22
2018-08-30T02:07:14.103Z,19.18
2018-08-30T02:09:44.633Z,19.22
2018-08-30T02:12:15.917Z,19.35
2018-08-30T02:14:46.043Z,19.42
2018-08-30T02:17:17.655Z,19.44
2018-08-30T02:19:47.753Z,19.44
2018-08-30T02:22:18.775Z,19.56
2018-08-30T02:24:50.013Z,19.51
2018-08-30T02:27:20.413Z,19.58
2018-08-30T02:29:51.667Z,19.61
2018-08-30T02:32:21.689Z,19.61
2018-08-30T02:34:52.547Z,19.64
2018-08-30T02:38:26.423Z,19.58
2018-08-30T02:40:57.191Z,19.53
2018-08-30T02:43:27.244Z,19.50
2018-08-30T02:45:58.160Z,19.53
2018-08-30T02:48:29.096Z,19.51
2018-08-30T02:50:59.702Z,19.38
2018-08-30T02:53:30.927Z,19.09
2018-08-30T02:56:02.092Z,19.08
2018-08-30T02:58:33.819Z,18.98
2018-08-30T03:01:04.236Z,18.97
2018-08-30T03:03:34.557Z,18.96
2018-08-30T03:06:04.783Z,18.79
2018-08-30T03:08:35.190Z,18.76
2018-08-30T03:11:06.634Z,18.52
2018-08-30T03:13:36.703Z,18.44
2018-08-30T03:16:08.483Z,18.46
2018-08-30T03:18:38.611Z,18.44
2018-08-30T03:21:09.966Z,18.44
2018-08-30T03:23:41.005Z,18.46
2018-08-30T03:26:11.287Z,18.43
2018-08-30T03:28:42.982Z,18.45
2018-08-30T03:31:14.336Z,18.42
2018-08-30T03:33:44.419Z,18.42
2018-08-30T03:36:14.776Z,18.44
2018-08-30T03:38:46.539Z,18.44
2018-08-30T03:41:18.118Z,18.41
2018-08-30T03:43:50.869Z,18.41
2018-08-30T03:46:20.898Z,18.38
2018-08-30T03:48:51.005Z,18.45
2018-08-30T03:51:21.564Z,18.35
2018-08-30T03:53:52.582Z,18.28
2018-08-30T03:56:22.626Z,18.20
2018-08-30T03:58:53.792Z,18.19
2018-08-30T04:01:24.199Z,18.14
2018-08-30T04:03:56.075Z,18.29
2018-08-30T04:06:26.730Z,18.37
2018-08-30T04:08:57.885Z,18.34
2018-08-30T04:11:30.145Z,18.33
2018-08-30T04:14:00.788Z,18.30
2018-08-30T04:16:32.118Z,18.35
2018-08-30T04:19:11.144Z,18.46
2018-08-30T04:21:41.475Z,18.56
2018-08-30T04:24:12.248Z,18.52
2018-08-30T04:26:44.057Z,18.50
2018-08-30T04:29:14.085Z,18.50
2018-08-30T04:31:45.684Z,18.63
2018-08-30T04:34:16.738Z,18.64
2018-08-30T04:36:48.720Z,18.69
2018-08-30T04:39:20.088Z,18.74
2018-08-30T04:41:50.570Z,18.55
2018-08-30T04:44:21.149Z,18.52
2018-08-30T04:46:53.263Z,18.59
2018-08-30T04:49:24.282Z,18.58
2018-08-30T04:51:54.530Z,18.47
2018-08-30T04:54:25.086Z,18.40
2018-08-30T04:56:55.240Z,18.31
2018-08-30T04:59:26.026Z,18.43
2018-08-30T05:01:58.459Z,18.42
2018-08-30T05:04:30.248Z,18.31
2018-08-30T05:07:00.772Z,18.39
2018-08-30T05:09:30.909Z,18.33
2018-08-30T05:12:02.548Z,18.26
2018-08-30T05:14:33.336Z,18.41
2018-08-30T05:17:05.191Z,18.55
2018-08-30T05:19:36.526Z,18.47
2018-08-30T05:22:06.824Z,18.51
2018-08-30T05:24:38.086Z,18.51
2018-08-30T05:27:10.460Z,18.64
2018-08-30T05:29:40.718Z,18.93
2018-08-30T05:32:10.924Z,19.12
2018-08-30T05:34:41.429Z,18.87
2018-08-30T05:37:12.860Z,18.80
2018-08-30T05:39:43.016Z,18.63
2018-08-30T05:42:14.562Z,18.61
2018-08-30T05:44:47.038Z,18.63
2018-08-30T05:47:18.436Z,18.75
2018-08-30T05:49:53.590Z,18.78
2018-08-30T05:52:25.212Z,18.79
2018-08-30T05:54:56.028Z,18.87
2018-08-30T05:57:28.315Z,18.79
2018-08-30T06:00:01.096Z,18.85
2018-08-30T06:02:32.008Z,18.86
2018-08-30T06:05:02.959Z,18.76
2018-08-30T06:07:33.769Z,18.87
2018-08-30T06:10:06.944Z,18.99
2018-08-30T06:12:38.313Z,18.98
2018-08-30T06:15:13.864Z,18.89
2018-08-30T06:17:44.141Z,18.77
2018-08-30T06:20:15.237Z,18.78
2018-08-30T06:22:45.795Z,18.98
2018-08-30T06:25:16.977Z,18.95
2018-08-30T06:27:48.059Z,18.96
2018-08-30T06:30:20.140Z,19.25
2018-08-30T06:32:50.229Z,19.10
2018-08-30T06:35:21.311Z,18.95
2018-08-30T06:37:52.200Z,18.99
2018-08-30T06:40:23.723Z,19.27
2018-08-30T06:42:53.902Z,19.25
2018-08-30T06:45:25.894Z,19.49
2018-08-30T06:47:57.639Z,19.46
2018-08-30T06:50:28.355Z,19.39
2018-08-30T06:52:59.992Z,19.72
2018-08-30T06:55:31.245Z,19.50
2018-08-30T06:58:04.283Z,19.48
2018-08-30T07:00:35.601Z,19.69
2018-08-30T07:03:08.303Z,19.59
2018-08-30T07:05:39.015Z,19.25
2018-08-30T07:08:10.314Z,19.27
2018-08-30T07:10:41.739Z,19.16
2018-08-30T07:13:13.467Z,19.43
2018-08-30T07:15:45.332Z,19.41
2018-08-30T07:18:17.825Z,19.22
2018-08-30T07:20:49.917Z,19.33
2018-08-30T07:23:20.636Z,19.70
2018-08-30T07:25:51.684Z,19.68
2018-08-30T07:28:22.184Z,19.51
2018-08-30T07:30:53.872Z,19.41
2018-08-30T07:33:24.722Z,19.41
2018-08-30T07:35:54.918Z,19.22
2018-08-30T07:38:25.914Z,19.61
2018-08-30T07:40:56.037Z,19.91
2018-08-30T07:43:26.178Z,19.86
2018-08-30T07:45:56.269Z,20.02
2018-08-30T07:48:26.940Z,19.72
2018-08-30T07:50:58.830Z,19.51
2018-08-30T07:53:30.519Z,19.22
2018-08-30T07:56:04.371Z,18.99
2018-08-30T07:58:35.000Z,19.25
2018-08-30T08:01:06.118Z,19.31
2018-08-30T08:03:37.145Z,19.63
2018-08-30T08:06:08.559Z,19.69
2018-08-30T08:08:39.474Z,19.29
2018-08-30T08:11:09.999Z,19.25
2018-08-30T08:13:40.486Z,19.11
2018-08-30T08:16:11.539Z,18.93
2018-08-30T08:18:41.791Z,19.00
2018-08-30T08:21:13.188Z,18.94
2018-08-30T08:23:44.326Z,18.85
2018-08-30T08:26:15.999Z,19.05
2018-08-30T08:28:46.872Z,19.42
2018-08-30T08:31:18.906Z,19.44
2018-08-30T08:33:49.988Z,19.06
2018-08-30T08:36:21.259Z,19.17
2018-08-30T08:38:52.874Z,19.35
2018-08-30T08:41:24.240Z,19.32
2018-08-30T08:43:55.966Z,19.62
2018-08-30T08:46:27.714Z,19.81
2018-08-30T08:48:58.598Z,20.00
2018-08-30T08:51:29.360Z,21.15
2018-08-30T08:54:01.438Z,21.68
2018-08-30T08:56:33.245Z,21.82
2018-08-30T08:59:05.113Z,21.54
2018-08-30T09:01:35.536Z,21.51
2018-08-30T09:04:06.237Z,21.16
2018-08-30T09:06:36.876Z,20.91
2018-08-30T09:09:11.104Z,21.15
2018-08-30T09:11:41.973Z,21.64
2018-08-30T09:14:12.383Z,22.95
2018-08-30T09:16:43.172Z,22.95
2018-08-30T09:19:14.048Z,22.90
2018-08-30T09:21:44.606Z,23.46
2018-08-30T09:24:15.344Z,23.59
2018-08-30T09:26:45.564Z,23.48
2018-08-30T09:29:15.888Z,22.80
2018-08-30T09:31:46.465Z,21.60
2018-08-30T09:34:18.353Z,20.85
2018-08-30T09:36:48.981Z,20.71
2018-08-30T09:39:19.353Z,20.74
2018-08-30T09:41:50.151Z,20.80
2018-08-30T09:44:20.237Z,21.07
2018-08-30T09:46:50.296Z,21.33
2018-08-30T09:49:20.525Z,21.43
2018-08-30T09:51:51.596Z,21.48
2018-08-30T09:54:21.925Z,21.26
2018-08-30T09:56:52.216Z,21.59
2018-08-30T09:59:22.849Z,21.77
2018-08-30T10:01:59.122Z,22.18
2018-08-30T10:04:29.806Z,23.94
2018-08-30T10:07:00.805Z,24.33
2018-08-30T10:09:32.655Z,24.73
2018-08-30T10:12:02.736Z,25.88
2018-08-30T10:14:33.666Z,26.54
2018-08-30T10:17:05.753Z,25.44
2018-08-30T10:19:36.521Z,25.58
2018-08-30T10:22:10.045Z,25.88
2018-08-30T10:24:41.252Z,26.07
2018-08-30T10:27:12.533Z,24.62
2018-08-30T10:29:43.907Z,23.06
2018-08-30T10:32:16.943Z,21.81
2018-08-30T10:34:49.191Z,22.11
2018-08-30T10:37:19.911Z,22.27
2018-08-30T10:39:50.708Z,21.89
2018-08-30T10:42:23.667Z,21.35
2018-08-30T10:44:56.482Z,20.86
2018-08-30T10:47:27.713Z,20.92
2018-08-30T10:49:58.402Z,20.62
2018-08-30T10:52:30.276Z,20.88
2018-08-30T10:55:01.620Z,21.29
2018-08-30T10:57:32.404Z,21.07
2018-08-30T11:00:03.257Z,21.30
2018-08-30T11:02:33.486Z,22.03
2018-08-30T11:05:03.663Z,22.55
2018-08-30T11:07:33.881Z,22.35
2018-08-30T11:10:04.186Z,22.65
2018-08-30T11:12:35.965Z,21.96
2018-08-30T11:15:06.319Z,21.48
2018-08-30T11:17:38.935Z,21.27
2018-08-30T11:20:09.941Z,21.31
2018-08-30T11:22:39.955Z,20.97
2018-08-30T11:25:10.127Z,21.19
2018-08-30T11:27:40.290Z,21.36
2018-08-30T11:30:10.340Z,21.19
2018-08-30T11:32:42.050Z,21.19
2018-08-30T11:35:13.558Z,21.14
2018-08-30T11:37:43.666Z,20.55
2018-08-30T11:40:15.151Z,20.38
2018-08-30T11:42:46.501Z,20.12
2018-08-30T11:45:17.987Z,19.91
2018-08-30T11:47:48.085Z,19.64
2018-08-30T11:50:19.276Z,19.73
2018-08-30T11:52:50.794Z,19.68
2018-08-30T11:55:22.835Z,19.75
2018-08-30T11:57:54.647Z,19.73
2018-08-30T12:00:30.631Z,19.73
2018-08-30T12:03:01.712Z,19.67
2018-08-30T12:05:34.599Z,19.42
2018-08-30T12:08:05.822Z,19.49
2018-08-30T12:10:37.457Z,19.56
2018-08-30T12:13:08.522Z,19.58
2018-08-30T12:15:39.751Z,19.66
2018-08-30T12:18:09.955Z,19.93
2018-08-30T12:20:41.582Z,20.07
2018-08-30T12:23:12.198Z,20.18
2018-08-30T12:25:42.408Z,20.14
2018-08-30T12:28:13.934Z,20.38
2018-08-30T12:30:44.397Z,20.40
2018-08-30T12:33:14.525Z,20.23
2018-08-30T12:35:45.763Z,20.91
2018-08-30T12:38:16.035Z,23.74
2018-08-30T12:40:46.182Z,26.07
2018-08-30T12:43:17.725Z,26.67
2018-08-30T12:45:49.368Z,26.90
2018-08-30T12:48:19.418Z,27.23
2018-08-30T12:50:50.340Z,26.95
2018-08-30T12:53:22.391Z,26.63
2018-08-30T12:55:53.172Z,28.36
2018-08-30T12:58:24.342Z,28.91
2018-08-30T13:00:54.914Z,28.86
2018-08-30T13:03:25.899Z,27.31
2018-08-30T13:05:59.086Z,27.63
2018-08-30T13:08:30.671Z,28.41
2018-08-30T13:11:03.225Z,27.16
2018-08-30T13:13:35.130Z,26.11
2018-08-30T13:16:07.456Z,24.70
2018-08-30T13:18:38.195Z,24.44
2018-08-30T13:21:09.172Z,24.21
2018-08-30T13:23:41.533Z,23.77
2018-08-30T13:26:12.373Z,25.43
2018-08-30T13:28:43.711Z,26.52
2018-08-30T13:31:15.414Z,27.18
2018-08-30T13:33:46.478Z,28.07
2018-08-30T13:36:16.996Z,26.62
2018-08-30T13:38:48.995Z,25.67
2018-08-30T13:41:19.833Z,26.19
2018-08-30T13:43:50.607Z,26.87
2018-08-30T13:46:21.818Z,27.42
2018-08-30T13:48:52.394Z,28.23
2018-08-30T13:51:24.400Z,29.42
2018-08-30T13:53:55.007Z,29.62
2018-08-30T13:56:25.904Z,27.97
2018-08-30T13:58:56.365Z,29.02
2018-08-30T14:01:26.962Z,30.13
2018-08-30T14:03:57.044Z,29.04
2018-08-30T14:06:27.428Z,29.60
2018-08-30T14:08:58.849Z,29.88
2018-08-30T14:11:30.522Z,29.51
2018-08-30T14:14:00.994Z,28.70
2018-08-30T14:16:30.977Z,29.73
2018-08-30T14:19:01.214Z,28.80
2018-08-30T14:21:32.624Z,28.00
2018-08-30T14:24:02.872Z,26.90
2018-08-30T14:26:33.025Z,25.98
2018-08-30T14:29:03.094Z,25.17
2018-08-30T14:31:33.278Z,25.17
2018-08-30T14:34:04.641Z,23.99
2018-08-30T14:36:36.540Z,24.11
2018-08-30T14:39:10.098Z,24.14
2018-08-30T14:41:41.383Z,24.25
2018-08-30T14:44:11.558Z,24.49
2018-08-30T14:46:42.838Z,24.02
2018-08-30T14:49:12.942Z,23.91
2018-08-30T14:51:44.867Z,23.71
2018-08-30T14:54:15.526Z,23.54
2018-08-30T14:56:46.049Z,23.85
2018-08-30T14:59:16.830Z,23.77
2018-08-30T15:01:47.089Z,23.93
2018-08-30T15:04:16.981Z,24.47
2018-08-30T15:06:47.376Z,24.89
2018-08-30T15:09:18.161Z,25.04
2018-08-30T15:11:49.736Z,24.86
2018-08-30T15:14:22.370Z,24.77
2018-08-30T15:16:53.433Z,24.43
2018-08-30T15:19:25.127Z,24.66
2018-08-30T15:21:56.836Z,24.77
2018-08-30T15:24:28.620Z,24.98
2018-08-30T15:27:00.535Z,24.67
2018-08-30T15:29:33.680Z,24.72
2018-08-30T15:32:05.555Z,24.71
2018-08-30T15:34:37.540Z,25.51
2018-08-30T15:37:11.479Z,25.90
2018-08-30T15:39:42.682Z,26.08
2018-08-30T15:42:13.036Z,24.96
2018-08-30T15:44:45.116Z,24.30
2018-08-30T15:47:15.594Z,23.40
2018-08-30T15:49:46.595Z,22.92
2018-08-30T15:52:16.660Z,22.82
2018-08-30T15:54:47.057Z,22.88
2018-08-30T15:57:17.423Z,22.97
2018-08-30T15:59:48.013Z,23.00
2018-08-30T16:02:18.735Z,23.38
2018-08-30T16:04:50.168Z,23.47
2018-08-30T16:07:20.755Z,23.46
2018-08-30T16:09:51.082Z,23.68
2018-08-30T16:12:21.310Z,24.63
2018-08-30T16:14:51.481Z,24.68
2018-08-30T16:17:21.941Z,24.41
2018-08-30T16:19:52.036Z,23.92
2018-08-30T16:22:28.363Z,23.74
2018-08-30T16:24:59.278Z,23.20
2018-08-30T16:27:31.992Z,23.03
2018-08-30T16:30:02.159Z,23.04
2018-08-30T16:32:32.820Z,22.57
2018-08-30T16:35:04.161Z,22.68
2018-08-30T16:37:37.914Z,22.54
2018-08-30T16:40:10.732Z,22.45
2018-08-30T16:42:43.075Z,22.16
2018-08-30T16:45:13.942Z,21.85
2018-08-30T16:47:44.556Z,21.96
2018-08-30T16:50:15.478Z,22.02
2018-08-30T16:52:47.650Z,21.91
2018-08-30T16:55:19.339Z,21.76
2018-08-30T16:57:50.866Z,21.72
2018-08-30T17:00:21.662Z,21.60
2018-08-30T17:02:53.310Z,21.47
2018-08-30T17:05:25.544Z,21.55
2018-08-30T17:07:56.572Z,21.67
2018-08-30T17:10:28.623Z,21.43
2018-08-30T17:12:59.808Z,21.27
2018-08-30T17:15:30.963Z,21.13
2018-08-30T17:18:03.350Z,21.07
2018-08-30T17:20:37.536Z,21.05
2018-08-30T17:23:09.179Z,21.12
2018-08-30T17:25:39.371Z,21.16
2018-08-30T17:28:09.584Z,21.12
2018-08-30T17:30:41.095Z,21.04
2018-08-30T17:33:12.917Z,20.97
2018-08-30T17:35:47.231Z,20.85
2018-08-30T17:38:18.618Z,20.79
2018-08-30T17:40:49.700Z,20.59
2018-08-30T17:43:21.678Z,20.52
2018-08-30T17:45:52.314Z,20.59
2018-08-30T17:48:24.576Z,20.18
2018-08-30T17:50:55.121Z,20.00
2018-08-30T17:53:26.035Z,19.93
2018-08-30T17:55:57.863Z,19.89
2018-08-30T17:58:28.743Z,19.79
2018-08-30T18:00:59.332Z,19.75
2018-08-30T18:03:30.696Z,19.63
2018-08-30T18:06:02.456Z,19.57
2018-08-30T18:08:33.889Z,19.49
2018-08-30T18:11:06.824Z,19.52
2018-08-30T18:13:37.083Z,19.43
2018-08-30T18:16:07.218Z,19.36
2018-08-30T18:18:39.616Z,19.33
2018-08-30T18:21:11.200Z,19.31
2018-08-30T18:23:42.588Z,19.29
2018-08-30T18:26:13.567Z,19.30
2018-08-30T18:28:44.689Z,19.25
2018-08-30T18:31:15.063Z,19.27
2018-08-30T18:33:45.146Z,19.25
2018-08-30T18:36:15.356Z,19.15
2018-08-30T18:38:46.975Z,19.16
2018-08-30T18:41:35.430Z,19.18
2018-08-30T18:44:07.845Z,19.12
2018-08-30T18:47:02.972Z,19.03
2018-08-30T18:49:36.079Z,19.00
2018-08-30T18:52:07.423Z,18.96
2018-08-30T18:54:40.387Z,18.92
2018-08-30T18:57:23.882Z,18.82
2018-08-30T18:59:55.353Z,18.76
2018-08-30T19:02:26.801Z,18.67
2018-08-30T19:04:57.886Z,18.41
2018-08-30T19:07:28.610Z,18.34
2018-08-30T19:09:59.348Z,18.22
2018-08-30T19:12:35.217Z,18.09
2018-08-30T19:15:10.139Z,18.00
2018-08-30T19:17:45.942Z,17.91
2018-08-30T19:20:18.906Z,17.95
2018-08-30T19:22:50.096Z,17.88
2018-08-30T19:25:26.349Z,17.89
2018-08-30T19:27:57.069Z,17.80
2018-08-30T19:30:28.652Z,17.67
2018-08-30T19:32:59.549Z,17.59
2018-08-30T19:35:35.104Z,17.52
2018-08-30T19:38:06.321Z,17.49
2018-08-30T19:40:42.114Z,17.37
2018-08-30T19:43:12.289Z,17.28
2018-08-30T19:45:44.388Z,17.18
2018-08-30T19:48:15.561Z,17.22
2018-08-30T19:50:46.235Z,17.02
2018-08-30T19:53:16.886Z,17.02
2018-08-30T19:55:46.995Z,17.00
2018-08-30T19:58:17.224Z,16.94
2018-08-30T20:00:48.577Z,16.99
2018-08-30T20:03:19.468Z,16.91
2018-08-30T20:05:49.722Z,16.90
2018-08-30T20:08:20.355Z,16.86
2018-08-30T20:10:51.848Z,16.83
2018-08-30T20:13:22.005Z,16.94
2018-08-30T20:15:52.242Z,16.88
2018-08-30T20:18:23.664Z,16.84
2018-08-30T20:20:54.509Z,16.79
2018-08-30T20:23:24.934Z,16.75
2018-08-30T20:25:56.756Z,16.63
2018-08-30T20:28:27.548Z,16.53
2018-08-30T20:30:57.897Z,16.46
2018-08-30T20:33:29.478Z,16.32
2018-08-30T20:36:00.883Z,16.31
2018-08-30T20:38:31.581Z,16.21
2018-08-30T20:41:03.062Z,16.12
2018-08-30T20:43:34.160Z,16.06
2018-08-30T20:46:04.636Z,15.95
2018-08-30T20:48:35.437Z,15.89
2018-08-30T20:51:05.944Z,15.85
2018-08-30T20:53:37.638Z,15.82
2018-08-30T20:56:08.197Z,15.75
2018-08-30T20:58:39.388Z,15.67
2018-08-30T21:01:09.985Z,15.60
2018-08-30T21:03:41.301Z,15.54
2018-08-30T21:06:11.605Z,15.49
2018-08-30T21:08:43.254Z,15.45
2018-08-30T21:11:13.504Z,15.40
2018-08-30T21:13:45.736Z,15.34
2018-08-30T21:16:16.088Z,15.35
2018-08-30T21:18:46.248Z,15.33
2018-08-30T21:21:16.587Z,15.60
2018-08-30T21:23:46.673Z,15.49
2018-08-30T21:26:18.037Z,15.51
2018-08-30T21:28:54.574Z,15.53
2018-08-30T21:31:26.228Z,15.56
2018-08-30T21:33:56.396Z,15.59
2018-08-30T21:36:26.667Z,15.63
2018-08-30T21:38:57.303Z,15.72
2018-08-30T21:41:29.176Z,15.64
2018-08-30T21:44:01.574Z,15.63
2018-08-30T21:46:31.769Z,15.50
2018-08-30T21:49:03.634Z,15.36
2018-08-30T21:51:34.444Z,15.38
2018-08-30T21:54:04.809Z,15.29
2018-08-30T21:56:36.974Z,15.30
2018-08-30T21:59:09.432Z,15.34
2018-08-30T22:01:39.703Z,15.33
2018-08-30T22:04:12.090Z,15.33
2018-08-30T22:06:43.116Z,15.32
2018-08-30T22:09:14.832Z,15.23
2018-08-30T22:11:45.016Z,15.19
2018-08-30T22:14:15.986Z,15.16
2018-08-30T22:16:48.264Z,15.13
2018-08-30T22:19:19.754Z,15.03
2018-08-30T22:21:51.482Z,14.80
2018-08-30T22:24:22.780Z,14.67
2018-08-30T22:26:53.101Z,14.71
2018-08-30T22:29:23.343Z,14.65
2018-08-30T22:31:53.581Z,14.64
2018-08-30T22:34:24.219Z,14.79
2018-08-30T22:36:54.421Z,14.68
2018-08-30T22:39:25.911Z,14.63
2018-08-30T22:41:56.018Z,14.58
2018-08-30T22:44:27.937Z,14.60
2018-08-30T22:46:58.547Z,14.48
2018-08-30T22:49:31.281Z,14.42
2018-08-30T22:52:01.999Z,14.40
2018-08-30T22:54:32.341Z,14.47
2018-08-30T22:57:04.951Z,14.40
2018-08-30T22:59:36.530Z,14.37
2018-08-30T23:02:07.400Z,14.32
2018-08-30T23:04:38.932Z,14.39
2018-08-30T23:07:09.321Z,14.42
2018-08-30T23:09:40.182Z,14.49
2018-08-30T23:12:10.972Z,14.50
2018-08-30T23:14:41.765Z,14.48
2018-08-30T23:17:12.061Z,14.54
2018-08-30T23:19:44.042Z,14.58
2018-08-30T23:22:14.829Z,14.61
2018-08-30T23:24:45.101Z,14.40
2018-08-30T23:27:15.878Z,14.36
2018-08-30T23:29:47.889Z,14.38
2018-08-30T23:32:18.242Z,14.36
2018-08-30T23:34:49.409Z,14.20
2018-08-30T23:37:20.346Z,14.26
2018-08-30T23:39:50.697Z,14.34
2018-08-30T23:42:21.946Z,14.11
2018-08-30T23:44:53.502Z,14.03
2018-08-30T23:47:24.988Z,14.13
2018-08-30T23:49:55.285Z,14.06
2018-08-30T23:52:27.759Z,13.97
2018-08-30T23:54:57.964Z,13.93
2018-08-30T23:57:28.668Z,14.01
